CN-0001 weather

CLOSED Old Guangzhou Baiyun International Airport
Guangzhou, Guangdong Province, China

Public forecast

Using degrees Celsius for public forecast. Weather courtesy of forecast.io.

METAR (pilot weather report)

Closest report is Guangzhou Baiyun International Airport, 12.6 nm (23.4 km) N. Retrieved 2019/05/21 03:30 UTC (0 seconds ago):

ZGGG 210330Z 07002MPS 9999 BKN033 27/19 Q1011 NOSIG

TAF (pilot weather forecast)

Forecast is more than 12 hours old.

Closest forecast is Guangzhou Baiyun International Airport, 12.6 nm (23.4 km) N. Retrieved 2019/05/20 00:00 UTC (1 day ago):

TAF ZGGG 202101Z 2100/2124 05004MPS 8000 BKN030 TX31/2107Z TN23/2122Z TEMPO 2106/2112 3500 TSRA SCT011 SCT026CB BKN030